createdAt,value
2023-03-20T00:02:48.844Z,48.63
2023-03-20T00:12:52.312Z,45.43
2023-03-20T00:22:56.952Z,41.33
2023-03-20T00:33:00.733Z,47.50
2023-03-20T00:43:05.971Z,39.77
2023-03-20T00:53:12.541Z,42.77
2023-03-20T01:03:20.313Z,44.33
2023-03-20T01:13:27.231Z,42.57
2023-03-20T01:23:31.873Z,40.50
2023-03-20T01:33:35.455Z,37.00
2023-03-20T01:43:40.626Z,37.50
2023-03-20T01:53:47.848Z,33.23
2023-03-20T02:03:53.051Z,35.37
2023-03-20T02:14:12.893Z,31.60
2023-03-20T02:25:02.285Z,36.73
2023-03-20T02:35:38.284Z,37.37
2023-03-20T02:45:52.725Z,30.63
2023-03-20T02:56:06.846Z,31.60
2023-03-20T03:06:18.941Z,32.07
2023-03-20T03:16:27.185Z,29.37
2023-03-20T03:26:35.374Z,31.30
2023-03-20T03:36:47.325Z,36.07
2023-03-20T03:46:56.484Z,29.93
2023-03-20T03:57:03.065Z,34.47
2023-03-20T04:07:08.129Z,38.47
2023-03-20T04:17:11.652Z,31.40
2023-03-20T04:27:16.994Z,37.23
2023-03-20T04:37:21.088Z,36.10
2023-03-20T04:47:34.832Z,37.20
2023-03-20T04:57:38.518Z,29.60
2023-03-20T05:07:43.218Z,29.37
2023-03-20T05:17:51.911Z,27.70
2023-03-20T05:28:08.874Z,28.73
2023-03-20T05:38:23.714Z,27.63
2023-03-20T05:48:37.083Z,32.67
2023-03-20T05:59:22.235Z,25.40
2023-03-20T06:09:40.012Z,30.70
2023-03-20T06:29:52.284Z,39.17
2023-03-20T06:40:03.609Z,26.30
2023-03-20T06:50:10.481Z,25.40
2023-03-20T07:00:15.375Z,19.87
2023-03-20T07:10:19.930Z,31.27
2023-03-20T07:20:28.098Z,24.50
2023-03-20T07:30:33.370Z,19.50
2023-03-20T07:40:37.094Z,16.93
2023-03-20T07:50:46.988Z,20.00
2023-03-20T08:00:51.179Z,21.53
2023-03-20T08:10:55.762Z,15.47
2023-03-20T08:20:58.874Z,13.53
2023-03-20T08:31:03.915Z,14.40
2023-03-20T08:41:08.304Z,16.17
2023-03-20T08:51:12.986Z,14.40
2023-03-20T09:01:16.707Z,8.97
2023-03-20T09:11:21.823Z,7.37
2023-03-20T09:21:25.024Z,9.27
2023-03-20T09:31:29.576Z,9.97
2023-03-20T09:41:49.254Z,8.17
2023-03-20T09:52:01.797Z,9.87
2023-03-20T10:02:09.435Z,9.77
2023-03-20T10:12:43.598Z,10.03
2023-03-20T10:22:49.209Z,11.50
2023-03-20T10:33:04.639Z,9.87
2023-03-20T10:43:16.930Z,11.20
2023-03-20T10:53:31.867Z,9.33
2023-03-20T11:03:39.799Z,10.40
2023-03-20T11:13:45.694Z,8.43
2023-03-20T11:23:49.611Z,4.93
2023-03-20T11:34:10.389Z,5.43
2023-03-20T11:44:24.242Z,5.73
2023-03-20T11:54:30.325Z,5.83
2023-03-20T12:04:38.251Z,5.03
2023-03-20T12:14:49.030Z,3.53
2023-03-20T12:24:59.686Z,5.97
2023-03-20T12:35:11.810Z,4.10
2023-03-20T12:45:18.870Z,3.40
2023-03-20T12:55:45.089Z,6.73
2023-03-20T13:05:58.732Z,7.60
2023-03-20T13:16:16.486Z,6.77
2023-03-20T13:26:34.719Z,6.30
2023-03-20T13:36:53.429Z,5.93
2023-03-20T13:47:00.707Z,4.73
2023-03-20T13:57:13.922Z,5.70
2023-03-20T14:07:31.683Z,5.60
2023-03-20T14:17:36.658Z,5.10
2023-03-20T14:27:57.863Z,5.63
2023-03-20T14:38:16.842Z,6.27
2023-03-20T14:48:32.099Z,6.23
2023-03-20T14:59:02.547Z,5.53
2023-03-20T15:09:09.663Z,5.50
2023-03-20T15:19:19.650Z,6.83
2023-03-20T15:29:24.294Z,6.10
2023-03-20T15:39:29.982Z,6.40
2023-03-20T15:49:34.116Z,10.17
2023-03-20T15:59:38.667Z,6.27
2023-03-20T16:09:45.391Z,10.03
2023-03-20T16:19:49.933Z,7.00
2023-03-20T16:29:54.280Z,7.17
2023-03-20T16:40:17.249Z,9.80
2023-03-20T16:50:22.629Z,8.13
2023-03-20T17:00:29.903Z,7.13
2023-03-20T17:10:33.439Z,8.13
2023-03-20T17:20:38.307Z,11.43
2023-03-20T17:30:43.854Z,9.13
2023-03-20T17:40:48.794Z,4.30
2023-03-20T17:50:51.809Z,4.17
2023-03-20T18:00:56.899Z,8.03
2023-03-20T18:11:01.216Z,12.83
2023-03-20T18:21:06.626Z,7.10
2023-03-20T18:31:09.840Z,6.53
2023-03-20T18:41:14.393Z,5.17
2023-03-20T18:51:17.372Z,8.03
2023-03-20T19:01:23.177Z,7.53
2023-03-20T19:11:26.439Z,8.90
2023-03-20T19:21:32.168Z,5.80
2023-03-20T19:31:35.304Z,8.93
2023-03-20T19:41:39.892Z,6.50
2023-03-20T19:51:43.447Z,6.57
2023-03-20T20:01:47.958Z,5.33
2023-03-20T20:11:51.311Z,9.23
2023-03-20T20:22:26.377Z,8.33
2023-03-20T20:32:22.081Z,10.97
2023-03-20T20:42:27.161Z,7.70
2023-03-20T20:52:30.667Z,9.60
2023-03-20T21:02:35.462Z,10.13
2023-03-20T21:12:55.895Z,6.37
2023-03-20T21:23:03.385Z,11.13
2023-03-20T21:33:06.720Z,8.23
2023-03-20T21:43:12.347Z,7.40
2023-03-20T21:54:09.637Z,7.47
2023-03-20T22:04:31.969Z,5.17
2023-03-20T22:25:08.388Z,7.43
2023-03-20T22:35:40.765Z,5.83
2023-03-20T22:45:18.819Z,8.37
2023-03-20T22:55:23.339Z,7.67
2023-03-20T23:05:27.893Z,8.87
2023-03-20T23:15:31.303Z,11.77
2023-03-20T23:25:40.271Z,8.20
2023-03-20T23:35:43.707Z,5.87
2023-03-20T23:45:48.515Z,11.60
2023-03-20T23:55:55.224Z,14.37
